sensor_id;sensor_type;location;lat;lon;timestamp;P1;durP1;ratioP1;P2;durP2;ratioP2
52586;SDS011;38480;52.724;6.436;2022-12-18T00:00:02;111.47;;;38.27;;
52586;SDS011;38480;52.724;6.436;2022-12-18T00:02:28;124.20;;;37.17;;
52586;SDS011;38480;52.724;6.436;2022-12-18T00:04:54;125.37;;;42.80;;
52586;SDS011;38480;52.724;6.436;2022-12-18T00:07:20;105.33;;;33.30;;
52586;SDS011;38480;52.724;6.436;2022-12-18T00:09:46;117.07;;;38.20;;
52586;SDS011;38480;52.724;6.436;2022-12-18T00:12:12;118.87;;;39.67;;
52586;SDS011;38480;52.724;6.436;2022-12-18T00:14:38;119.57;;;42.27;;
52586;SDS011;38480;52.724;6.436;2022-12-18T00:17:04;134.43;;;44.27;;
52586;SDS011;38480;52.724;6.436;2022-12-18T00:19:30;116.40;;;41.13;;
52586;SDS011;38480;52.724;6.436;2022-12-18T00:21:56;126.87;;;41.50;;
52586;SDS011;38480;52.724;6.436;2022-12-18T00:24:23;129.73;;;43.07;;
52586;SDS011;38480;52.724;6.436;2022-12-18T00:26:49;136.57;;;45.17;;
52586;SDS011;38480;52.724;6.436;2022-12-18T00:29:15;129.40;;;40.33;;
52586;SDS011;38480;52.724;6.436;2022-12-18T00:31:42;117.77;;;40.97;;
52586;SDS011;38480;52.724;6.436;2022-12-18T00:34:09;130.73;;;44.27;;
52586;SDS011;38480;52.724;6.436;2022-12-18T00:36:35;123.00;;;41.90;;
52586;SDS011;38480;52.724;6.436;2022-12-18T00:39:03;134.47;;;43.57;;
52586;SDS011;38480;52.724;6.436;2022-12-18T00:41:29;146.10;;;45.97;;
52586;SDS011;38480;52.724;6.436;2022-12-18T00:44:15;136.93;;;45.07;;
52586;SDS011;38480;52.724;6.436;2022-12-18T00:46:42;152.00;;;46.47;;
52586;SDS011;38480;52.724;6.436;2022-12-18T00:49:08;143.73;;;45.93;;
52586;SDS011;38480;52.724;6.436;2022-12-18T00:51:34;148.30;;;45.50;;
52586;SDS011;38480;52.724;6.436;2022-12-18T00:54:00;136.57;;;44.10;;
52586;SDS011;38480;52.724;6.436;2022-12-18T00:56:26;129.97;;;45.07;;
52586;SDS011;38480;52.724;6.436;2022-12-18T00:58:52;145.03;;;47.70;;
52586;SDS011;38480;52.724;6.436;2022-12-18T01:01:19;155.83;;;46.80;;
52586;SDS011;38480;52.724;6.436;2022-12-18T01:03:45;153.63;;;48.23;;
52586;SDS011;38480;52.724;6.436;2022-12-18T01:06:12;149.20;;;47.63;;
52586;SDS011;38480;52.724;6.436;2022-12-18T01:08:38;140.33;;;45.97;;
52586;SDS011;38480;52.724;6.436;2022-12-18T01:11:08;150.27;;;51.00;;
52586;SDS011;38480;52.724;6.436;2022-12-18T01:13:34;145.07;;;47.77;;
52586;SDS011;38480;52.724;6.436;2022-12-18T01:16:00;146.27;;;43.23;;
52586;SDS011;38480;52.724;6.436;2022-12-18T01:18:26;140.40;;;46.23;;
52586;SDS011;38480;52.724;6.436;2022-12-18T01:20:52;134.13;;;44.30;;
52586;SDS011;38480;52.724;6.436;2022-12-18T01:23:18;126.37;;;41.90;;
52586;SDS011;38480;52.724;6.436;2022-12-18T01:25:44;130.47;;;42.97;;
52586;SDS011;38480;52.724;6.436;2022-12-18T01:28:10;136.30;;;44.77;;
52586;SDS011;38480;52.724;6.436;2022-12-18T01:30:37;138.23;;;48.43;;
52586;SDS011;38480;52.724;6.436;2022-12-18T01:33:06;132.90;;;41.03;;
52586;SDS011;38480;52.724;6.436;2022-12-18T01:35:32;146.37;;;44.97;;
52586;SDS011;38480;52.724;6.436;2022-12-18T01:37:58;143.60;;;44.77;;
52586;SDS011;38480;52.724;6.436;2022-12-18T01:40:24;131.73;;;43.73;;
52586;SDS011;38480;52.724;6.436;2022-12-18T01:42:53;130.93;;;44.63;;
52586;SDS011;38480;52.724;6.436;2022-12-18T01:45:29;140.30;;;40.83;;
52586;SDS011;38480;52.724;6.436;2022-12-18T01:47:57;131.20;;;43.07;;
52586;SDS011;38480;52.724;6.436;2022-12-18T01:52:54;123.73;;;40.43;;
52586;SDS011;38480;52.724;6.436;2022-12-18T01:55:22;141.90;;;44.23;;
52586;SDS011;38480;52.724;6.436;2022-12-18T01:57:49;137.10;;;46.07;;
52586;SDS011;38480;52.724;6.436;2022-12-18T02:00:19;135.60;;;45.47;;
52586;SDS011;38480;52.724;6.436;2022-12-18T02:02:46;142.53;;;46.80;;
52586;SDS011;38480;52.724;6.436;2022-12-18T02:05:13;140.33;;;46.17;;
52586;SDS011;38480;52.724;6.436;2022-12-18T02:10:48;129.33;;;42.73;;
52586;SDS011;38480;52.724;6.436;2022-12-18T02:18:24;124.60;;;43.60;;
52586;SDS011;38480;52.724;6.436;2022-12-18T02:21:00;147.67;;;44.20;;
52586;SDS011;38480;52.724;6.436;2022-12-18T02:29:07;137.20;;;43.65;;
52586;SDS011;38480;52.724;6.436;2022-12-18T02:31:36;117.73;;;40.17;;
52586;SDS011;38480;52.724;6.436;2022-12-18T02:34:04;133.30;;;39.93;;
52586;SDS011;38480;52.724;6.436;2022-12-18T02:36:31;135.80;;;40.07;;
52586;SDS011;38480;52.724;6.436;2022-12-18T02:38:58;129.73;;;41.97;;
52586;SDS011;38480;52.724;6.436;2022-12-18T02:41:25;126.83;;;43.00;;
52586;SDS011;38480;52.724;6.436;2022-12-18T02:43:58;150.53;;;44.70;;
52586;SDS011;38480;52.724;6.436;2022-12-18T02:46:37;125.22;;;42.78;;
52586;SDS011;38480;52.724;6.436;2022-12-18T02:49:11;127.57;;;42.57;;
52586;SDS011;38480;52.724;6.436;2022-12-18T02:54:10;135.53;;;41.13;;
52586;SDS011;38480;52.724;6.436;2022-12-18T02:56:43;133.33;;;42.77;;
52586;SDS011;38480;52.724;6.436;2022-12-18T02:59:13;122.27;;;45.07;;
52586;SDS011;38480;52.724;6.436;2022-12-18T03:01:49;121.90;;;40.53;;
52586;SDS011;38480;52.724;6.436;2022-12-18T03:06:57;123.33;;;42.23;;
52586;SDS011;38480;52.724;6.436;2022-12-18T03:09:27;118.53;;;39.70;;
52586;SDS011;38480;52.724;6.436;2022-12-18T03:11:56;115.43;;;39.53;;
52586;SDS011;38480;52.724;6.436;2022-12-18T03:14:43;131.87;;;37.03;;
52586;SDS011;38480;52.724;6.436;2022-12-18T03:17:11;118.90;;;40.20;;
52586;SDS011;38480;52.724;6.436;2022-12-18T03:19:39;126.43;;;43.63;;
52586;SDS011;38480;52.724;6.436;2022-12-18T03:22:06;118.47;;;38.40;;
52586;SDS011;38480;52.724;6.436;2022-12-18T03:24:33;127.47;;;38.40;;
52586;SDS011;38480;52.724;6.436;2022-12-18T03:27:04;140.57;;;44.67;;
52586;SDS011;38480;52.724;6.436;2022-12-18T03:29:42;137.33;;;43.33;;
52586;SDS011;38480;52.724;6.436;2022-12-18T03:32:18;125.60;;;41.27;;
52586;SDS011;38480;52.724;6.436;2022-12-18T03:34:47;125.00;;;39.93;;
52586;SDS011;38480;52.724;6.436;2022-12-18T03:37:14;109.00;;;38.90;;
52586;SDS011;38480;52.724;6.436;2022-12-18T03:39:41;113.63;;;38.67;;
52586;SDS011;38480;52.724;6.436;2022-12-18T03:44:49;117.50;;;38.63;;
52586;SDS011;38480;52.724;6.436;2022-12-18T03:54:47;109.33;;;39.23;;
52586;SDS011;38480;52.724;6.436;2022-12-18T03:57:18;109.00;;;36.23;;
52586;SDS011;38480;52.724;6.436;2022-12-18T03:59:45;104.07;;;36.70;;
52586;SDS011;38480;52.724;6.436;2022-12-18T04:02:12;108.30;;;36.63;;
52586;SDS011;38480;52.724;6.436;2022-12-18T04:04:39;101.83;;;36.40;;
52586;SDS011;38480;52.724;6.436;2022-12-18T04:07:06;107.87;;;36.10;;
52586;SDS011;38480;52.724;6.436;2022-12-18T04:09:32;115.60;;;37.60;;
52586;SDS011;38480;52.724;6.436;2022-12-18T04:11:59;93.87;;;34.83;;
52586;SDS011;38480;52.724;6.436;2022-12-18T04:14:25;105.77;;;37.27;;
52586;SDS011;38480;52.724;6.436;2022-12-18T04:16:51;107.60;;;36.80;;
52586;SDS011;38480;52.724;6.436;2022-12-18T04:19:17;102.60;;;35.60;;
52586;SDS011;38480;52.724;6.436;2022-12-18T04:21:43;97.70;;;35.47;;
52586;SDS011;38480;52.724;6.436;2022-12-18T04:24:09;117.17;;;40.13;;
52586;SDS011;38480;52.724;6.436;2022-12-18T04:26:35;92.30;;;34.13;;
52586;SDS011;38480;52.724;6.436;2022-12-18T04:29:02;103.73;;;32.07;;
52586;SDS011;38480;52.724;6.436;2022-12-18T04:31:28;89.40;;;33.63;;
52586;SDS011;38480;52.724;6.436;2022-12-18T04:33:54;96.73;;;34.50;;
52586;SDS011;38480;52.724;6.436;2022-12-18T04:36:20;92.90;;;31.33;;
52586;SDS011;38480;52.724;6.436;2022-12-18T04:38:46;82.03;;;32.83;;
52586;SDS011;38480;52.724;6.436;2022-12-18T04:41:12;94.80;;;32.63;;
52586;SDS011;38480;52.724;6.436;2022-12-18T04:43:38;92.83;;;32.30;;
52586;SDS011;38480;52.724;6.436;2022-12-18T04:46:06;87.80;;;32.27;;
52586;SDS011;38480;52.724;6.436;2022-12-18T04:48:32;87.37;;;31.00;;
52586;SDS011;38480;52.724;6.436;2022-12-18T04:50:58;89.00;;;33.27;;
52586;SDS011;38480;52.724;6.436;2022-12-18T04:53:25;86.10;;;33.03;;
52586;SDS011;38480;52.724;6.436;2022-12-18T04:55:51;73.43;;;26.97;;
52586;SDS011;38480;52.724;6.436;2022-12-18T04:58:27;77.60;;;28.53;;
52586;SDS011;38480;52.724;6.436;2022-12-18T05:00:53;76.60;;;28.40;;
52586;SDS011;38480;52.724;6.436;2022-12-18T05:03:19;74.67;;;28.00;;
52586;SDS011;38480;52.724;6.436;2022-12-18T05:05:45;77.57;;;30.47;;
52586;SDS011;38480;52.724;6.436;2022-12-18T05:08:11;78.73;;;29.37;;
52586;SDS011;38480;52.724;6.436;2022-12-18T05:10:37;82.90;;;29.77;;
52586;SDS011;38480;52.724;6.436;2022-12-18T05:13:03;69.17;;;28.13;;
52586;SDS011;38480;52.724;6.436;2022-12-18T05:15:29;72.73;;;27.73;;
52586;SDS011;38480;52.724;6.436;2022-12-18T05:17:56;72.47;;;27.37;;
52586;SDS011;38480;52.724;6.436;2022-12-18T05:20:22;77.37;;;28.80;;
52586;SDS011;38480;52.724;6.436;2022-12-18T05:22:48;72.37;;;29.00;;
52586;SDS011;38480;52.724;6.436;2022-12-18T05:25:14;77.93;;;28.20;;
52586;SDS011;38480;52.724;6.436;2022-12-18T05:27:41;76.47;;;25.97;;
52586;SDS011;38480;52.724;6.436;2022-12-18T05:30:07;79.10;;;26.70;;
52586;SDS011;38480;52.724;6.436;2022-12-18T05:32:33;65.10;;;24.03;;
52586;SDS011;38480;52.724;6.436;2022-12-18T05:34:59;67.63;;;27.17;;
52586;SDS011;38480;52.724;6.436;2022-12-18T05:37:25;69.30;;;27.70;;
52586;SDS011;38480;52.724;6.436;2022-12-18T05:39:52;67.53;;;27.13;;
52586;SDS011;38480;52.724;6.436;2022-12-18T05:42:18;69.67;;;25.67;;
52586;SDS011;38480;52.724;6.436;2022-12-18T05:44:44;67.00;;;27.53;;
52586;SDS011;38480;52.724;6.436;2022-12-18T05:47:10;63.53;;;25.63;;
52586;SDS011;38480;52.724;6.436;2022-12-18T05:49:36;73.83;;;26.53;;
52586;SDS011;38480;52.724;6.436;2022-12-18T05:52:02;70.07;;;24.40;;
52586;SDS011;38480;52.724;6.436;2022-12-18T05:54:28;62.70;;;24.43;;
52586;SDS011;38480;52.724;6.436;2022-12-18T05:56:54;68.77;;;26.83;;
52586;SDS011;38480;52.724;6.436;2022-12-18T05:59:20;60.00;;;23.63;;
52586;SDS011;38480;52.724;6.436;2022-12-18T06:01:46;71.97;;;25.87;;
52586;SDS011;38480;52.724;6.436;2022-12-18T06:04:12;61.17;;;24.50;;
52586;SDS011;38480;52.724;6.436;2022-12-18T06:06:38;61.50;;;22.73;;
52586;SDS011;38480;52.724;6.436;2022-12-18T06:09:04;60.33;;;24.50;;
52586;SDS011;38480;52.724;6.436;2022-12-18T06:11:33;64.97;;;25.77;;
52586;SDS011;38480;52.724;6.436;2022-12-18T06:14:00;53.80;;;21.80;;
52586;SDS011;38480;52.724;6.436;2022-12-18T06:16:26;58.97;;;23.00;;
52586;SDS011;38480;52.724;6.436;2022-12-18T06:18:53;71.40;;;25.83;;
52586;SDS011;38480;52.724;6.436;2022-12-18T06:21:19;62.90;;;24.00;;
52586;SDS011;38480;52.724;6.436;2022-12-18T06:23:45;64.80;;;24.47;;
52586;SDS011;38480;52.724;6.436;2022-12-18T06:26:12;59.93;;;24.03;;
52586;SDS011;38480;52.724;6.436;2022-12-18T06:28:38;53.13;;;21.17;;
52586;SDS011;38480;52.724;6.436;2022-12-18T06:31:04;63.30;;;25.47;;
52586;SDS011;38480;52.724;6.436;2022-12-18T06:33:30;64.87;;;25.00;;
52586;SDS011;38480;52.724;6.436;2022-12-18T06:36:03;52.77;;;23.60;;
52586;SDS011;38480;52.724;6.436;2022-12-18T06:38:31;66.07;;;24.80;;
52586;SDS011;38480;52.724;6.436;2022-12-18T06:40:57;54.63;;;21.93;;
52586;SDS011;38480;52.724;6.436;2022-12-18T06:43:23;58.53;;;22.63;;
52586;SDS011;38480;52.724;6.436;2022-12-18T06:45:49;64.50;;;22.80;;
52586;SDS011;38480;52.724;6.436;2022-12-18T06:48:18;59.83;;;22.57;;
52586;SDS011;38480;52.724;6.436;2022-12-18T06:50:45;49.23;;;21.40;;
52586;SDS011;38480;52.724;6.436;2022-12-18T06:53:11;47.57;;;20.70;;
52586;SDS011;38480;52.724;6.436;2022-12-18T06:55:37;50.07;;;20.63;;
52586;SDS011;38480;52.724;6.436;2022-12-18T06:58:03;57.97;;;22.50;;
52586;SDS011;38480;52.724;6.436;2022-12-18T07:00:29;52.90;;;21.23;;
52586;SDS011;38480;52.724;6.436;2022-12-18T07:02:55;61.20;;;21.43;;
52586;SDS011;38480;52.724;6.436;2022-12-18T07:05:21;53.43;;;20.13;;
52586;SDS011;38480;52.724;6.436;2022-12-18T07:07:47;42.20;;;19.67;;
52586;SDS011;38480;52.724;6.436;2022-12-18T07:10:13;45.33;;;19.60;;
52586;SDS011;38480;52.724;6.436;2022-12-18T07:12:39;45.13;;;19.60;;
52586;SDS011;38480;52.724;6.436;2022-12-18T07:15:06;52.20;;;20.40;;
52586;SDS011;38480;52.724;6.436;2022-12-18T07:17:32;43.37;;;18.37;;
52586;SDS011;38480;52.724;6.436;2022-12-18T07:19:58;39.97;;;16.93;;
52586;SDS011;38480;52.724;6.436;2022-12-18T07:22:25;42.17;;;17.63;;
52586;SDS011;38480;52.724;6.436;2022-12-18T07:24:51;52.63;;;20.73;;
52586;SDS011;38480;52.724;6.436;2022-12-18T07:27:17;51.93;;;19.07;;
52586;SDS011;38480;52.724;6.436;2022-12-18T07:29:43;52.00;;;22.50;;
52586;SDS011;38480;52.724;6.436;2022-12-18T07:32:09;43.53;;;19.93;;
52586;SDS011;38480;52.724;6.436;2022-12-18T07:34:35;53.00;;;20.60;;
52586;SDS011;38480;52.724;6.436;2022-12-18T07:37:01;45.53;;;20.07;;
52586;SDS011;38480;52.724;6.436;2022-12-18T07:39:27;45.23;;;19.20;;
52586;SDS011;38480;52.724;6.436;2022-12-18T07:41:53;43.43;;;20.23;;
52586;SDS011;38480;52.724;6.436;2022-12-18T07:44:42;47.77;;;19.40;;
52586;SDS011;38480;52.724;6.436;2022-12-18T07:47:09;49.27;;;20.20;;
52586;SDS011;38480;52.724;6.436;2022-12-18T07:49:35;47.53;;;20.83;;
52586;SDS011;38480;52.724;6.436;2022-12-18T07:52:01;46.37;;;20.03;;
52586;SDS011;38480;52.724;6.436;2022-12-18T07:54:27;50.10;;;19.30;;
52586;SDS011;38480;52.724;6.436;2022-12-18T07:56:53;42.10;;;18.53;;
52586;SDS011;38480;52.724;6.436;2022-12-18T07:59:19;37.17;;;18.20;;
52586;SDS011;38480;52.724;6.436;2022-12-18T08:01:46;49.30;;;18.47;;
52586;SDS011;38480;52.724;6.436;2022-12-18T08:04:12;46.43;;;19.73;;
52586;SDS011;38480;52.724;6.436;2022-12-18T08:06:38;43.67;;;19.27;;
52586;SDS011;38480;52.724;6.436;2022-12-18T08:09:04;37.17;;;19.33;;
52586;SDS011;38480;52.724;6.436;2022-12-18T08:11:30;49.23;;;19.73;;
52586;SDS011;38480;52.724;6.436;2022-12-18T08:13:57;44.93;;;18.23;;
52586;SDS011;38480;52.724;6.436;2022-12-18T08:16:23;43.80;;;20.23;;
52586;SDS011;38480;52.724;6.436;2022-12-18T08:18:51;43.30;;;19.20;;
52586;SDS011;38480;52.724;6.436;2022-12-18T08:21:21;38.93;;;17.13;;
52586;SDS011;38480;52.724;6.436;2022-12-18T08:23:48;39.77;;;16.30;;
52586;SDS011;38480;52.724;6.436;2022-12-18T08:26:15;38.60;;;17.40;;
52586;SDS011;38480;52.724;6.436;2022-12-18T08:28:42;36.27;;;17.73;;
52586;SDS011;38480;52.724;6.436;2022-12-18T08:31:08;41.47;;;17.57;;
52586;SDS011;38480;52.724;6.436;2022-12-18T08:33:35;37.03;;;16.43;;
52586;SDS011;38480;52.724;6.436;2022-12-18T08:36:03;39.80;;;17.97;;
52586;SDS011;38480;52.724;6.436;2022-12-18T08:38:29;35.80;;;16.60;;
52586;SDS011;38480;52.724;6.436;2022-12-18T08:41:05;40.80;;;20.17;;
52586;SDS011;38480;52.724;6.436;2022-12-18T08:43:32;34.83;;;16.13;;
52586;SDS011;38480;52.724;6.436;2022-12-18T08:46:18;31.70;;;16.57;;
52586;SDS011;38480;52.724;6.436;2022-12-18T08:48:44;33.77;;;15.30;;
52586;SDS011;38480;52.724;6.436;2022-12-18T08:51:10;31.20;;;15.90;;
52586;SDS011;38480;52.724;6.436;2022-12-18T08:53:36;31.30;;;16.07;;
52586;SDS011;38480;52.724;6.436;2022-12-18T08:56:03;36.23;;;16.10;;
52586;SDS011;38480;52.724;6.436;2022-12-18T08:58:29;27.73;;;14.60;;
52586;SDS011;38480;52.724;6.436;2022-12-18T09:01:02;35.77;;;16.53;;
52586;SDS011;38480;52.724;6.436;2022-12-18T09:03:29;35.25;;;16.17;;
52586;SDS011;38480;52.724;6.436;2022-12-18T09:05:55;33.37;;;15.43;;
52586;SDS011;38480;52.724;6.436;2022-12-18T09:08:21;34.87;;;15.27;;
52586;SDS011;38480;52.724;6.436;2022-12-18T09:10:48;30.97;;;14.83;;
52586;SDS011;38480;52.724;6.436;2022-12-18T09:13:15;29.73;;;15.23;;
52586;SDS011;38480;52.724;6.436;2022-12-18T09:15:41;28.30;;;14.93;;
52586;SDS011;38480;52.724;6.436;2022-12-18T09:18:08;28.60;;;14.17;;
52586;SDS011;38480;52.724;6.436;2022-12-18T09:20:35;31.53;;;15.03;;
52586;SDS011;38480;52.724;6.436;2022-12-18T09:23:01;30.37;;;14.90;;
52586;SDS011;38480;52.724;6.436;2022-12-18T09:25:28;28.27;;;14.80;;
52586;SDS011;38480;52.724;6.436;2022-12-18T09:27:58;27.47;;;14.80;;
52586;SDS011;38480;52.724;6.436;2022-12-18T09:30:24;22.00;;;12.07;;
52586;SDS011;38480;52.724;6.436;2022-12-18T09:32:51;23.93;;;12.23;;
52586;SDS011;38480;52.724;6.436;2022-12-18T09:35:17;22.47;;;11.73;;
52586;SDS011;38480;52.724;6.436;2022-12-18T09:37:43;25.83;;;13.40;;
52586;SDS011;38480;52.724;6.436;2022-12-18T09:40:13;23.03;;;11.87;;
52586;SDS011;38480;52.724;6.436;2022-12-18T09:42:39;23.57;;;11.30;;
52586;SDS011;38480;52.724;6.436;2022-12-18T09:45:07;23.77;;;11.57;;
52586;SDS011;38480;52.724;6.436;2022-12-18T09:47:37;23.30;;;12.17;;
52586;SDS011;38480;52.724;6.436;2022-12-18T09:50:05;21.00;;;11.47;;
52586;SDS011;38480;52.724;6.436;2022-12-18T09:52:41;23.53;;;12.17;;
52586;SDS011;38480;52.724;6.436;2022-12-18T09:57:34;23.23;;;11.83;;
52586;SDS011;38480;52.724;6.436;2022-12-18T10:00:06;24.50;;;11.83;;
52586;SDS011;38480;52.724;6.436;2022-12-18T10:02:34;23.57;;;11.80;;
52586;SDS011;38480;52.724;6.436;2022-12-18T10:07:33;23.10;;;10.73;;
52586;SDS011;38480;52.724;6.436;2022-12-18T10:10:04;20.80;;;10.47;;
52586;SDS011;38480;52.724;6.436;2022-12-18T10:17:58;20.73;;;11.03;;
52586;SDS011;38480;52.724;6.436;2022-12-18T10:20:40;19.57;;;10.87;;
52586;SDS011;38480;52.724;6.436;2022-12-18T10:28:08;23.17;;;10.03;;
52586;SDS011;38480;52.724;6.436;2022-12-18T10:30:36;21.33;;;10.77;;
52586;SDS011;38480;52.724;6.436;2022-12-18T10:33:08;17.63;;;10.30;;
52586;SDS011;38480;52.724;6.436;2022-12-18T10:35:34;25.03;;;11.93;;
52586;SDS011;38480;52.724;6.436;2022-12-18T10:38:23;19.17;;;9.30;;
52586;SDS011;38480;52.724;6.436;2022-12-18T10:40:52;21.30;;;10.20;;
52586;SDS011;38480;52.724;6.436;2022-12-18T10:43:25;19.03;;;10.30;;
52586;SDS011;38480;52.724;6.436;2022-12-18T10:46:03;19.42;;;9.15;;
52586;SDS011;38480;52.724;6.436;2022-12-18T10:48:30;21.87;;;11.23;;
52586;SDS011;38480;52.724;6.436;2022-12-18T10:50:57;20.87;;;11.00;;
52586;SDS011;38480;52.724;6.436;2022-12-18T10:53:24;16.50;;;8.67;;
52586;SDS011;38480;52.724;6.436;2022-12-18T10:55:52;15.67;;;8.60;;
52586;SDS011;38480;52.724;6.436;2022-12-18T10:58:24;16.00;;;9.00;;
52586;SDS011;38480;52.724;6.436;2022-12-18T11:03:42;17.73;;;9.13;;
52586;SDS011;38480;52.724;6.436;2022-12-18T11:06:10;15.83;;;8.87;;
52586;SDS011;38480;52.724;6.436;2022-12-18T11:08:36;17.73;;;9.27;;
52586;SDS011;38480;52.724;6.436;2022-12-18T11:11:02;16.40;;;9.40;;
52586;SDS011;38480;52.724;6.436;2022-12-18T11:13:30;15.03;;;7.73;;
52586;SDS011;38480;52.724;6.436;2022-12-18T11:15:57;17.73;;;8.57;;
52586;SDS011;38480;52.724;6.436;2022-12-18T11:18:30;16.10;;;8.17;;
52586;SDS011;38480;52.724;6.436;2022-12-18T11:20:57;14.65;;;8.15;;
52586;SDS011;38480;52.724;6.436;2022-12-18T11:23:25;18.30;;;9.00;;
52586;SDS011;38480;52.724;6.436;2022-12-18T11:25:52;15.90;;;8.63;;
52586;SDS011;38480;52.724;6.436;2022-12-18T11:31:25;13.83;;;7.27;;
52586;SDS011;38480;52.724;6.436;2022-12-18T11:33:44;14.07;;;7.97;;
52586;SDS011;38480;52.724;6.436;2022-12-18T11:36:12;13.87;;;8.20;;
52586;SDS011;38480;52.724;6.436;2022-12-18T11:38:41;14.60;;;8.00;;
52586;SDS011;38480;52.724;6.436;2022-12-18T11:44:28;17.60;;;8.77;;
52586;SDS011;38480;52.724;6.436;2022-12-18T11:46:58;13.07;;;6.93;;
52586;SDS011;38480;52.724;6.436;2022-12-18T11:49:32;13.63;;;7.50;;
52586;SDS011;38480;52.724;6.436;2022-12-18T11:52:04;12.00;;;7.33;;
52586;SDS011;38480;52.724;6.436;2022-12-18T11:57:04;12.30;;;6.70;;
52586;SDS011;38480;52.724;6.436;2022-12-18T11:59:35;12.33;;;6.77;;
52586;SDS011;38480;52.724;6.436;2022-12-18T12:04:56;11.47;;;6.90;;
52586;SDS011;38480;52.724;6.436;2022-12-18T12:12:44;11.43;;;6.43;;
52586;SDS011;38480;52.724;6.436;2022-12-18T12:18:07;15.23;;;7.50;;
52586;SDS011;38480;52.724;6.436;2022-12-18T12:20:49;10.20;;;5.57;;
52586;SDS011;38480;52.724;6.436;2022-12-18T12:23:26;10.90;;;6.20;;
52586;SDS011;38480;52.724;6.436;2022-12-18T12:25:59;10.10;;;5.87;;
52586;SDS011;38480;52.724;6.436;2022-12-18T12:31:19;10.00;;;5.70;;
52586;SDS011;38480;52.724;6.436;2022-12-18T12:38:48;10.57;;;5.20;;
52586;SDS011;38480;52.724;6.436;2022-12-18T12:41:17;8.73;;;5.10;;
52586;SDS011;38480;52.724;6.436;2022-12-18T12:44:04;8.70;;;5.97;;
52586;SDS011;38480;52.724;6.436;2022-12-18T12:46:31;10.80;;;6.27;;
52586;SDS011;38480;52.724;6.436;2022-12-18T12:49:00;10.47;;;5.00;;
52586;SDS011;38480;52.724;6.436;2022-12-18T12:51:31;10.10;;;4.77;;
52586;SDS011;38480;52.724;6.436;2022-12-18T12:53:58;9.07;;;4.73;;
52586;SDS011;38480;52.724;6.436;2022-12-18T12:59:19;10.63;;;5.30;;
52586;SDS011;38480;52.724;6.436;2022-12-18T13:04:38;8.37;;;4.80;;
52586;SDS011;38480;52.724;6.436;2022-12-18T13:07:10;11.40;;;4.78;;
52586;SDS011;38480;52.724;6.436;2022-12-18T13:12:24;7.23;;;4.43;;
52586;SDS011;38480;52.724;6.436;2022-12-18T13:25:57;8.07;;;4.70;;
52586;SDS011;38480;52.724;6.436;2022-12-18T13:30:59;8.40;;;4.60;;
52586;SDS011;38480;52.724;6.436;2022-12-18T13:36:04;8.63;;;4.57;;
52586;SDS011;38480;52.724;6.436;2022-12-18T13:38:35;11.03;;;5.30;;
52586;SDS011;38480;52.724;6.436;2022-12-18T13:44:17;11.53;;;4.83;;
52586;SDS011;38480;52.724;6.436;2022-12-18T13:51:35;9.00;;;5.27;;
52586;SDS011;38480;52.724;6.436;2022-12-18T13:54:18;12.50;;;5.10;;
52586;SDS011;38480;52.724;6.436;2022-12-18T13:56:46;7.53;;;4.30;;
52586;SDS011;38480;52.724;6.436;2022-12-18T13:59:19;7.67;;;4.37;;
52586;SDS011;38480;52.724;6.436;2022-12-18T14:01:47;8.90;;;4.40;;
52586;SDS011;38480;52.724;6.436;2022-12-18T14:04:18;9.83;;;4.87;;
52586;SDS011;38480;52.724;6.436;2022-12-18T14:06:46;10.07;;;4.50;;
52586;SDS011;38480;52.724;6.436;2022-12-18T14:09:23;12.50;;;5.13;;
52586;SDS011;38480;52.724;6.436;2022-12-18T14:11:50;8.10;;;4.40;;
52586;SDS011;38480;52.724;6.436;2022-12-18T14:14:17;10.13;;;5.27;;
52586;SDS011;38480;52.724;6.436;2022-12-18T14:16:43;14.37;;;7.47;;
52586;SDS011;38480;52.724;6.436;2022-12-18T14:19:16;10.10;;;6.13;;
52586;SDS011;38480;52.724;6.436;2022-12-18T14:21:47;11.10;;;5.13;;
52586;SDS011;38480;52.724;6.436;2022-12-18T14:24:14;9.13;;;5.40;;
52586;SDS011;38480;52.724;6.436;2022-12-18T14:26:41;9.13;;;5.50;;
52586;SDS011;38480;52.724;6.436;2022-12-18T14:29:26;10.37;;;5.20;;
52586;SDS011;38480;52.724;6.436;2022-12-18T14:34:41;9.00;;;5.30;;
52586;SDS011;38480;52.724;6.436;2022-12-18T14:37:09;8.60;;;5.23;;
52586;SDS011;38480;52.724;6.436;2022-12-18T14:39:35;9.13;;;5.60;;
52586;SDS011;38480;52.724;6.436;2022-12-18T14:42:01;10.97;;;5.90;;
52586;SDS011;38480;52.724;6.436;2022-12-18T14:44:27;11.27;;;5.63;;
52586;SDS011;38480;52.724;6.436;2022-12-18T14:46:54;11.10;;;5.27;;
52586;SDS011;38480;52.724;6.436;2022-12-18T14:49:33;8.80;;;4.83;;
52586;SDS011;38480;52.724;6.436;2022-12-18T14:52:04;8.80;;;4.63;;
52586;SDS011;38480;52.724;6.436;2022-12-18T14:54:31;9.73;;;5.23;;
52586;SDS011;38480;52.724;6.436;2022-12-18T14:57:05;10.93;;;5.10;;
52586;SDS011;38480;52.724;6.436;2022-12-18T14:59:31;12.27;;;5.87;;
52586;SDS011;38480;52.724;6.436;2022-12-18T15:04:25;10.57;;;5.67;;
52586;SDS011;38480;52.724;6.436;2022-12-18T15:09:37;12.20;;;5.67;;
52586;SDS011;38480;52.724;6.436;2022-12-18T15:12:03;10.20;;;6.50;;
52586;SDS011;38480;52.724;6.436;2022-12-18T15:16:56;12.17;;;6.53;;
52586;SDS011;38480;52.724;6.436;2022-12-18T15:19:27;11.53;;;6.23;;
52586;SDS011;38480;52.724;6.436;2022-12-18T15:21:57;14.77;;;6.63;;
52586;SDS011;38480;52.724;6.436;2022-12-18T15:24:26;14.07;;;7.47;;
52586;SDS011;38480;52.724;6.436;2022-12-18T15:26:52;10.73;;;5.83;;
52586;SDS011;38480;52.724;6.436;2022-12-18T15:29:20;13.57;;;6.13;;
52586;SDS011;38480;52.724;6.436;2022-12-18T15:32:15;11.00;;;6.87;;
52586;SDS011;38480;52.724;6.436;2022-12-18T15:34:33;13.30;;;7.47;;
52586;SDS011;38480;52.724;6.436;2022-12-18T15:36:59;12.47;;;6.77;;
52586;SDS011;38480;52.724;6.436;2022-12-18T15:39:25;13.03;;;8.00;;
52586;SDS011;38480;52.724;6.436;2022-12-18T15:41:51;14.23;;;6.70;;
52586;SDS011;38480;52.724;6.436;2022-12-18T15:44:36;11.53;;;6.40;;
52586;SDS011;38480;52.724;6.436;2022-12-18T15:47:02;13.97;;;7.47;;
52586;SDS011;38480;52.724;6.436;2022-12-18T15:49:28;15.03;;;7.40;;
52586;SDS011;38480;52.724;6.436;2022-12-18T15:51:56;15.03;;;7.37;;
52586;SDS011;38480;52.724;6.436;2022-12-18T15:54:23;10.57;;;6.80;;
52586;SDS011;38480;52.724;6.436;2022-12-18T15:57:09;13.53;;;6.67;;
52586;SDS011;38480;52.724;6.436;2022-12-18T15:59:48;13.87;;;7.03;;
52586;SDS011;38480;52.724;6.436;2022-12-18T16:02:15;15.33;;;8.67;;
52586;SDS011;38480;52.724;6.436;2022-12-18T16:04:41;14.17;;;8.40;;
52586;SDS011;38480;52.724;6.436;2022-12-18T16:07:08;24.30;;;10.30;;
52586;SDS011;38480;52.724;6.436;2022-12-18T16:09:34;14.10;;;8.20;;
52586;SDS011;38480;52.724;6.436;2022-12-18T16:12:01;11.83;;;7.20;;
52586;SDS011;38480;52.724;6.436;2022-12-18T16:14:28;10.23;;;6.40;;
52586;SDS011;38480;52.724;6.436;2022-12-18T16:16:55;14.40;;;7.37;;
52586;SDS011;38480;52.724;6.436;2022-12-18T16:19:22;11.77;;;6.83;;
52586;SDS011;38480;52.724;6.436;2022-12-18T16:21:48;12.67;;;7.37;;
52586;SDS011;38480;52.724;6.436;2022-12-18T16:24:16;12.30;;;7.80;;
52586;SDS011;38480;52.724;6.436;2022-12-18T16:26:43;15.80;;;8.77;;
52586;SDS011;38480;52.724;6.436;2022-12-18T16:29:09;15.70;;;8.93;;